Time;durP1;ratioP1;P1;durP2;ratioP2;P2;SDS_P1;SDS_P2;PMS_P1;PMS_P2;Temp;Humidity;BMP_temperature;BMP_pressure;BME280_temperature;BME280_humidity;BME280_pressure;Samples;Min_cycle;Max_cycle;Signal;HPM_P1;HPM_P2
2022/09/19 00:01:45;;;;;;;1.02;0.55;;;9.40;99.90;;;;;;4992323;28;20034;-76
2022/09/19 00:04:30;;;;;;;0.25;0.20;;;9.40;99.90;;;;;;4993150;28;20026;-76
2022/09/19 00:06:57;;;;;;;0.25;0.10;;;9.40;99.90;;;;;;4991737;28;20046;-75
2022/09/19 00:09:27;;;;;;;6.15;0.45;;;9.40;99.90;;;;;;4992644;28;20034;-75
2022/09/19 00:11:55;;;;;;;0.82;0.50;;;9.40;99.90;;;;;;4991744;28;20026;-75
2022/09/19 00:14:27;;;;;;;0.00;0.00;;;9.40;99.90;;;;;;4992650;28;20026;-76
2022/09/19 00:16:59;;;;;;;2.47;0.70;;;9.30;99.90;;;;;;4991836;28;20041;-75
2022/09/19 00:19:26;;;;;;;2.10;0.77;;;9.30;99.90;;;;;;4975299;28;20035;-76
2022/09/19 00:21:56;;;;;;;4.38;0.47;;;9.30;99.90;;;;;;4991594;28;20045;-76
2022/09/19 00:27:10;;;;;;;1.67;0.20;;;9.30;99.90;;;;;;4992700;28;20336;-76
2022/09/19 00:29:38;;;;;;;0.35;0.35;;;9.20;99.90;;;;;;4992041;28;20109;-76
2022/09/19 00:32:07;;;;;;;2.50;0.25;;;9.20;99.90;;;;;;4991222;28;20034;-76
2022/09/19 00:34:33;;;;;;;1.23;0.50;;;9.30;99.90;;;;;;4992248;28;20030;-76
2022/09/19 00:36:59;;;;;;;0.77;0.20;;;9.20;99.90;;;;;;4991359;28;20030;-76
2022/09/19 00:39:25;;;;;;;5.35;0.68;;;9.20;99.90;;;;;;4992258;28;20117;-76
2022/09/19 00:41:51;;;;;;;0.45;0.38;;;9.30;99.90;;;;;;4992436;28;20736;-76
2022/09/19 00:44:23;;;;;;;0.10;0.10;;;9.30;99.90;;;;;;4990881;28;20125;-76
2022/09/19 00:46:56;;;;;;;0.40;0.35;;;9.40;99.90;;;;;;4991286;28;20041;-76
2022/09/19 00:49:25;;;;;;;0.15;0.15;;;9.40;99.90;;;;;;4991840;28;20390;-76
2022/09/19 00:51:55;;;;;;;0.98;0.55;;;9.40;99.90;;;;;;4990845;28;20022;-76
2022/09/19 00:54:30;;;;;;;0.32;0.28;;;9.50;99.90;;;;;;4990724;28;20034;-76
2022/09/19 00:56:57;;;;;;;0.08;0.08;;;9.50;99.90;;;;;;4991021;28;20026;-76
2022/09/19 00:59:27;;;;;;;0.85;0.32;;;9.50;99.90;;;;;;4991907;28;20079;-76
2022/09/19 01:01:54;;;;;;;0.38;0.28;;;9.50;99.90;;;;;;4990318;28;20034;-75
2022/09/19 01:04:23;;;;;;;0.70;0.70;;;9.30;99.90;;;;;;4989119;28;20124;-75
2022/09/19 01:07:13;;;;;;;0.52;0.45;;;9.40;99.90;;;;;;4985378;28;20037;-76
2022/09/19 01:10:39;;;;;;;0.20;0.20;;;9.40;99.90;;;;;;4987966;28;20030;-75
2022/09/19 01:13:15;;;;;;;0.35;0.28;;;9.40;99.90;;;;;;4972096;28;20034;-76
2022/09/19 01:16:02;;;;;;;0.28;0.25;;;9.40;99.90;;;;;;5006428;28;20101;-76
2022/09/19 01:19:15;;;;;;;4.95;0.28;;;9.40;99.90;;;;;;4990376;28;20026;-76
2022/09/19 01:22:19;;;;;;;0.10;0.10;;;9.40;99.90;;;;;;4950027;29;20055;-76
2022/09/19 01:25:11;;;;;;;0.35;0.35;;;9.50;99.90;;;;;;4990172;28;20550;-75
2022/09/19 01:28:13;;;;;;;;;;;9.50;99.90;;;;;;4991843;28;20038;-75
2022/09/19 01:31:16;;;;;;;4.20;0.28;;;9.50;99.90;;;;;;4991311;28;20096;-76
2022/09/19 01:33:50;;;;;;;1.48;0.40;;;9.50;99.90;;;;;;4990891;28;20446;-75
2022/09/19 01:36:18;;;;;;;0.63;0.25;;;9.50;99.90;;;;;;5005731;28;20491;-76
2022/09/19 01:38:45;;;;;;;0.47;0.38;;;9.40;99.90;;;;;;5005807;28;20475;-76
2022/09/19 01:41:12;;;;;;;0.20;0.20;;;9.40;99.90;;;;;;4991442;28;20121;-76
2022/09/19 01:43:38;;;;;;;0.40;0.40;;;9.40;99.90;;;;;;4990006;28;20133;-76
2022/09/19 01:46:57;;;;;;;0.10;0.10;;;9.40;99.90;;;;;;4989983;28;20035;-76
2022/09/19 01:49:38;;;;;;;0.47;0.35;;;9.50;99.90;;;;;;4966132;28;20058;-76
2022/09/19 01:52:48;;;;;;;0.17;0.17;;;9.40;99.90;;;;;;4981468;28;20487;-76
2022/09/19 01:55:20;;;;;;;0.17;0.13;;;9.30;99.90;;;;;;4972044;28;20038;-76
2022/09/19 01:58:08;;;;;;;0.60;0.20;;;9.30;99.90;;;;;;4971882;28;20427;-77
2022/09/19 02:00:39;;;;;;;0.25;0.20;;;9.30;99.90;;;;;;4970325;28;20030;-76
2022/09/19 02:03:27;;;;;;;0.55;0.40;;;9.20;99.90;;;;;;4970525;28;20491;-76
2022/09/19 02:06:12;;;;;;;0.40;0.10;;;9.10;99.90;;;;;;4970631;28;20133;-77
2022/09/19 02:08:54;;;;;;;1.02;0.32;;;9.10;99.90;;;;;;4971690;28;20039;-76
2022/09/19 02:11:22;;;;;;;0.10;0.10;;;9.00;99.90;;;;;;4970349;28;20054;-76
2022/09/19 02:14:10;;;;;;;3.60;0.50;;;9.00;99.90;;;;;;4972657;28;20027;-76
2022/09/19 02:17:02;;;;;;;0.17;0.17;;;8.80;99.90;;;;;;4993507;28;20081;-76
2022/09/19 02:19:37;;;;;;;0.52;0.40;;;8.70;99.90;;;;;;4993381;28;20037;-76
2022/09/19 02:22:14;;;;;;;0.47;0.22;;;8.80;99.90;;;;;;4994764;28;20030;-76
2022/09/19 02:24:44;;;;;;;0.98;0.43;;;8.80;99.90;;;;;;4993224;28;20562;-76
2022/09/19 02:27:20;;;;;;;0.10;0.10;;;8.80;99.90;;;;;;4993505;28;20038;-76
2022/09/19 02:29:53;;;;;;;0.80;0.35;;;8.90;99.90;;;;;;4993448;28;20336;-76
2022/09/19 02:32:21;;;;;;;0.43;0.43;;;8.90;99.90;;;;;;4993391;28;20033;-76
2022/09/19 02:34:49;;;;;;;1.17;0.38;;;9.00;99.90;;;;;;4977629;28;20030;-76
2022/09/19 02:37:46;;;;;;;0.98;0.38;;;9.00;99.90;;;;;;4994746;28;20386;-76
2022/09/19 02:40:26;;;;;;;0.35;0.30;;;9.10;99.90;;;;;;4993303;28;20029;-76
2022/09/19 02:43:16;;;;;;;0.43;0.30;;;9.10;99.90;;;;;;4994173;28;20046;-76
2022/09/19 02:45:50;;;;;;;0.20;0.20;;;9.00;99.90;;;;;;4993576;28;20517;-76
2022/09/19 02:48:56;;;;;;;0.15;0.15;;;9.10;99.90;;;;;;4994338;28;20049;-76
2022/09/19 02:51:30;;;;;;;1.45;0.30;;;9.10;99.90;;;;;;4994469;28;20038;-76
2022/09/19 02:54:10;;;;;;;0.43;0.22;;;9.10;99.90;;;;;;4992838;28;20117;-76
2022/09/19 02:56:41;;;;;;;0.30;0.30;;;9.20;99.90;;;;;;4993278;28;20041;-76
2022/09/19 02:59:21;;;;;;;2.10;0.70;;;9.40;99.90;;;;;;4992684;28;20045;-76
2022/09/19 03:02:00;;;;;;;3.42;0.93;;;9.50;99.90;;;;;;4993121;28;20121;-76
2022/09/19 03:04:40;;;;;;;0.70;0.47;;;9.70;99.90;;;;;;4977298;28;20030;-76
2022/09/19 03:07:19;;;;;;;2.38;0.60;;;9.70;99.90;;;;;;4993163;28;20030;-76
2022/09/19 03:10:14;;;;;;;1.23;0.45;;;9.80;99.90;;;;;;4992254;28;20383;-76
2022/09/19 03:13:10;;;;;;;4.07;0.30;;;9.80;99.90;;;;;;4993762;28;20030;-76
2022/09/19 03:16:04;;;;;;;0.93;0.70;;;10.00;99.90;;;;;;4980794;28;20049;-76
2022/09/19 03:18:32;;;;;;;0.85;0.43;;;10.00;99.90;;;;;;4993978;28;20038;-77
2022/09/19 03:21:03;;;;;;;2.60;1.13;;;10.00;99.90;;;;;;5008685;28;20034;-77
2022/09/19 03:23:45;;;;;;;1.10;0.50;;;10.00;99.90;;;;;;5008222;28;20141;-77
2022/09/19 03:26:17;;;;;;;6.45;1.20;;;10.00;99.90;;;;;;5008095;28;20042;-77
2022/09/19 03:28:43;;;;;;;8.05;0.57;;;10.00;99.90;;;;;;4993700;28;20089;-76
2022/09/19 03:31:10;;;;;;;3.13;0.63;;;10.00;99.90;;;;;;5008563;28;20034;-76
2022/09/19 03:33:35;;;;;;;3.17;0.85;;;10.10;99.90;;;;;;4993341;28;20553;-77
2022/09/19 03:36:07;;;;;;;2.70;1.25;;;10.10;99.90;;;;;;4993605;28;20034;-78
2022/09/19 03:38:44;;;;;;;2.22;1.27;;;10.00;99.90;;;;;;4993727;28;20089;-78
2022/09/19 03:41:19;;;;;;;5.78;0.50;;;10.10;99.90;;;;;;5008048;28;20036;-78
2022/09/19 03:43:46;;;;;;;12.13;1.02;;;10.20;99.90;;;;;;5008048;28;20042;-78
2022/09/19 03:46:20;;;;;;;2.60;0.85;;;10.20;99.90;;;;;;4993333;28;20113;-78
2022/09/19 03:48:46;;;;;;;5.65;1.35;;;10.20;99.90;;;;;;4992996;28;20030;-78
2022/09/19 03:51:16;;;;;;;2.30;1.02;;;10.30;99.90;;;;;;4993353;28;20042;-76
2022/09/19 03:53:42;;;;;;;1.50;0.90;;;10.30;99.90;;;;;;4993037;28;20034;-77
2022/09/19 03:56:10;;;;;;;1.73;1.23;;;10.30;99.90;;;;;;4993121;28;20026;-77
2022/09/19 03:58:38;;;;;;;0.70;0.45;;;10.40;99.90;;;;;;5008071;28;20495;-77
2022/09/19 04:01:06;;;;;;;1.10;0.52;;;10.40;99.90;;;;;;4992922;28;20022;-77
2022/09/19 04:03:33;;;;;;;1.65;0.52;;;10.30;99.90;;;;;;4991405;28;20030;-77
2022/09/19 04:06:00;;;;;;;8.77;0.70;;;10.20;99.90;;;;;;4992993;28;20030;-77
2022/09/19 04:08:27;;;;;;;3.15;0.57;;;10.10;99.90;;;;;;4987780;28;20503;-76
2022/09/19 04:10:53;;;;;;;4.20;0.45;;;10.20;99.90;;;;;;4994412;28;20038;-59
2022/09/19 04:13:21;;;;;;;4.40;0.70;;;10.20;99.90;;;;;;4992187;28;20022;-56
2022/09/19 04:15:51;;;;;;;2.75;1.38;;;10.30;99.90;;;;;;4992095;28;20030;-60
2022/09/19 04:18:18;;;;;;;2.17;1.13;;;10.30;99.90;;;;;;4990938;28;20046;-67
2022/09/19 04:20:50;;;;;;;1.88;1.20;;;10.20;99.90;;;;;;4991336;28;20053;-60
2022/09/19 04:23:17;;;;;;;5.63;1.92;;;10.20;99.90;;;;;;4991020;28;20027;-75
2022/09/19 04:25:46;;;;;;;1.13;0.75;;;10.20;99.90;;;;;;4990882;28;20027;-75
2022/09/19 04:28:13;;;;;;;3.30;1.02;;;10.30;99.90;;;;;;4992639;28;20045;-73
2022/09/19 04:30:40;;;;;;;6.00;0.47;;;10.40;99.90;;;;;;4974607;28;20501;-75
2022/09/19 04:33:10;;;;;;;5.80;0.43;;;10.40;99.90;;;;;;5006669;28;20499;-74
2022/09/19 04:35:37;;;;;;;4.43;1.00;;;10.50;99.90;;;;;;4990521;28;20030;-74
2022/09/19 04:38:08;;;;;;;6.30;1.27;;;10.60;99.90;;;;;;4992502;28;20823;-72
2022/09/19 04:40:41;;;;;;;5.88;1.55;;;10.60;99.90;;;;;;5011379;28;20041;-73
2022/09/19 04:43:13;;;;;;;2.22;0.73;;;10.70;99.90;;;;;;5026436;28;20148;-77
2022/09/19 04:45:40;;;;;;;8.30;1.38;;;10.80;99.90;;;;;;5026589;28;20031;-76
2022/09/19 04:48:06;;;;;;;2.40;1.23;;;10.50;99.90;;;;;;5011904;28;20038;-73
2022/09/19 04:50:36;;;;;;;1.08;0.63;;;10.50;99.90;;;;;;5011056;28;20042;-74
2022/09/19 04:53:03;;;;;;;7.00;2.70;;;10.50;99.90;;;;;;5026099;28;20401;-74
2022/09/19 04:55:29;;;;;;;5.95;1.13;;;10.60;99.90;;;;;;5026396;28;20049;-74
2022/09/19 04:57:57;;;;;;;3.33;1.17;;;10.60;99.90;;;;;;5026500;28;20478;-72
2022/09/19 05:00:39;;;;;;;1.75;0.70;;;10.60;99.90;;;;;;5009390;28;20026;-74
2022/09/19 05:03:07;;;;;;;3.22;0.63;;;10.70;99.90;;;;;;5026130;28;20036;-73
2022/09/19 05:05:37;;;;;;;7.03;1.02;;;10.70;99.90;;;;;;5011386;28;20034;-74
2022/09/19 05:08:05;;;;;;;10.38;1.48;;;10.80;99.90;;;;;;5009944;28;20510;-74
2022/09/19 05:10:32;;;;;;;2.20;1.20;;;10.70;99.90;;;;;;5010818;28;20033;-74
2022/09/19 05:12:59;;;;;;;4.82;1.40;;;10.70;99.90;;;;;;5010336;28;20072;-74
2022/09/19 05:15:25;;;;;;;0.65;0.52;;;10.70;99.90;;;;;;5014986;28;20505;-74
2022/09/19 05:17:55;;;;;;;3.88;1.00;;;10.90;99.90;;;;;;4989474;28;20031;-72
2022/09/19 05:20:28;;;;;;;1.77;0.75;;;10.90;99.90;;;;;;5001946;28;20068;-72
2022/09/19 05:22:59;;;;;;;2.30;0.63;;;10.70;99.90;;;;;;5024530;28;20082;-73
2022/09/19 05:25:27;;;;;;;4.95;0.85;;;10.50;99.90;;;;;;5010589;28;20537;-74
2022/09/19 05:27:56;;;;;;;1.13;0.65;;;10.20;99.90;;;;;;5025373;28;20152;-73
2022/09/19 05:30:22;;;;;;;0.77;0.57;;;10.30;99.90;;;;;;5024992;28;20092;-73
2022/09/19 05:32:48;;;;;;;7.53;1.23;;;10.30;99.90;;;;;;5010320;28;20022;-73
2022/09/19 05:35:14;;;;;;;3.20;1.15;;;10.20;99.90;;;;;;5010204;28;20099;-74
2022/09/19 05:37:45;;;;;;;21.48;2.25;;;10.30;99.90;;;;;;5010408;28;20117;-73
2022/09/19 05:40:11;;;;;;;4.82;1.08;;;10.40;99.90;;;;;;4990598;28;20383;-73
2022/09/19 05:42:46;;;;;;;2.78;0.77;;;10.60;99.90;;;;;;4989131;28;20466;-73
2022/09/19 05:45:13;;;;;;;6.93;0.85;;;10.30;99.90;;;;;;4989658;28;20097;-73
2022/09/19 05:47:39;;;;;;;1.40;0.95;;;10.30;99.90;;;;;;4990297;28;20056;-73
2022/09/19 05:50:11;;;;;;;4.18;0.65;;;10.30;99.90;;;;;;4989116;28;20402;-73
2022/09/19 05:55:25;;;;;;;6.90;0.70;;;10.50;99.90;;;;;;4989843;28;20110;-74
2022/09/19 05:57:54;;;;;;;3.35;1.13;;;10.50;99.90;;;;;;4989294;28;20041;-72
2022/09/19 06:00:21;;;;;;;5.32;0.70;;;10.60;99.90;;;;;;4967394;28;20601;-72
2022/09/19 06:03:00;;;;;;;2.25;0.73;;;10.60;99.90;;;;;;4981539;28;20559;-71
2022/09/19 06:05:32;;;;;;;1.85;1.10;;;10.70;99.90;;;;;;4989555;28;20112;-73
2022/09/19 06:07:59;;;;;;;;;;;10.70;99.90;;;;;;4991109;28;20121;-77
2022/09/19 06:10:27;;;;;;;1.52;0.47;;;10.60;99.90;;;;;;4990339;28;19918;-74
2022/09/19 06:12:56;;;;;;;5.65;1.48;;;10.60;99.90;;;;;;4989798;28;20130;-74
2022/09/19 06:15:22;;;;;;;6.85;1.08;;;10.50;99.90;;;;;;4990471;28;20121;-73
2022/09/19 06:17:57;;;;;;;10.15;2.05;;;10.60;99.90;;;;;;4989598;28;20122;-74
2022/09/19 06:20:23;;;;;;;14.68;1.23;;;10.60;99.90;;;;;;4989169;28;20487;-73
2022/09/19 06:22:50;;;;;;;6.00;1.45;;;10.50;99.90;;;;;;4989153;28;20038;-73
2022/09/19 06:25:16;;;;;;;3.97;2.15;;;10.60;99.90;;;;;;4989570;28;20494;-73
2022/09/19 06:27:45;;;;;;;0.88;0.50;;;10.60;99.90;;;;;;4990394;28;20066;-73
2022/09/19 06:30:11;;;;;;;2.30;0.40;;;10.50;99.90;;;;;;5004851;28;20038;-73
2022/09/19 06:32:40;;;;;;;1.23;0.47;;;10.50;99.90;;;;;;4988768;28;20031;-73
2022/09/19 06:35:06;;;;;;;1.45;0.80;;;10.60;99.90;;;;;;4990670;28;20114;-73
2022/09/19 06:37:32;;;;;;;2.60;0.68;;;10.70;99.90;;;;;;4990492;28;20475;-73
2022/09/19 06:39:57;;;;;;;2.10;0.73;;;10.80;99.90;;;;;;4990099;28;20036;-72
2022/09/19 06:42:23;;;;;;;1.00;0.73;;;10.80;99.90;;;;;;4990339;28;20121;-73
2022/09/19 06:44:49;;;;;;;1.10;0.57;;;10.80;99.90;;;;;;4989044;28;20038;-73
2022/09/19 06:47:15;;;;;;;1.42;0.90;;;10.70;99.90;;;;;;4984292;28;20518;-73
2022/09/19 06:49:41;;;;;;;8.73;0.98;;;10.70;99.90;;;;;;4989250;28;20030;-73
2022/09/19 06:52:07;;;;;;;4.25;1.05;;;10.70;99.90;;;;;;5004557;28;20096;-74
2022/09/19 06:54:33;;;;;;;3.42;1.02;;;10.60;99.90;;;;;;4989815;28;20032;-74
2022/09/19 06:57:00;;;;;;;3.97;1.35;;;10.70;99.90;;;;;;5004235;28;20102;-74
2022/09/19 06:59:26;;;;;;;4.55;1.23;;;10.70;99.90;;;;;;5005333;28;20117;-73
2022/09/19 07:01:53;;;;;;;3.05;1.30;;;10.80;99.90;;;;;;4992140;28;20117;-73
2022/09/19 07:04:19;;;;;;;1.90;0.85;;;10.80;99.90;;;;;;4993171;28;20080;-73
2022/09/19 07:06:46;;;;;;;2.38;2.17;;;10.90;99.90;;;;;;4993331;28;20023;-73
2022/09/19 07:09:11;;;;;;;6.43;1.42;;;11.00;99.90;;;;;;4992584;28;20031;-74
2022/09/19 07:11:37;;;;;;;2.00;0.63;;;11.00;99.90;;;;;;4993098;28;20030;-74
2022/09/19 07:14:04;;;;;;;2.50;0.65;;;11.10;99.90;;;;;;4992783;28;20033;-74
2022/09/19 07:16:31;;;;;;;1.58;0.60;;;11.20;99.90;;;;;;4991910;28;20550;-74
2022/09/19 07:18:56;;;;;;;9.38;1.33;;;11.20;99.90;;;;;;5009867;28;20099;-74
2022/09/19 07:21:22;;;;;;;1.67;1.58;;;11.30;99.90;;;;;;5002831;28;20490;-73
2022/09/19 07:23:49;;;;;;;0.73;0.30;;;11.40;99.90;;;;;;5011770;28;20451;-74
2022/09/19 07:26:15;;;;;;;7.40;1.10;;;11.60;99.90;;;;;;4999242;28;20041;-74
2022/09/19 07:28:41;;;;;;;0.60;0.50;;;11.60;99.90;;;;;;5026819;28;20129;-73
2022/09/19 07:31:07;;;;;;;5.97;1.08;;;11.70;99.90;;;;;;5002711;28;20052;-74
2022/09/19 07:33:33;;;;;;;0.95;0.63;;;11.70;99.90;;;;;;4998916;28;20035;-74
2022/09/19 07:36:00;;;;;;;3.53;1.05;;;11.70;99.90;;;;;;5004442;28;20081;-73
2022/09/19 07:38:27;;;;;;;2.40;1.00;;;11.80;99.90;;;;;;5004888;28;20375;-74
2022/09/19 07:40:54;;;;;;;7.40;1.58;;;11.90;99.90;;;;;;4996389;28;20034;-75
2022/09/19 07:43:20;;;;;;;3.08;0.88;;;12.10;99.90;;;;;;5026111;28;20037;-73
2022/09/19 07:45:49;;;;;;;2.28;0.47;;;12.20;99.90;;;;;;5003318;28;20041;-74
2022/09/19 07:48:17;;;;;;;0.80;0.70;;;12.20;99.90;;;;;;4995109;28;20057;-74
2022/09/19 07:50:43;;;;;;;1.88;1.30;;;12.30;99.90;;;;;;5015513;28;20030;-74
2022/09/19 07:53:13;;;;;;;1.60;1.17;;;12.40;99.90;;;;;;5011530;28;20034;-73
2022/09/19 07:55:41;;;;;;;1.08;0.70;;;12.40;99.90;;;;;;5015249;28;20054;-74
2022/09/19 07:58:10;;;;;;;6.95;1.15;;;12.50;99.90;;;;;;5021911;28;20025;-75
2022/09/19 08:00:36;;;;;;;6.20;1.13;;;12.60;99.90;;;;;;5021662;28;20125;-75
2022/09/19 08:03:10;;;;;;;2.65;0.73;;;12.60;99.90;;;;;;5005408;28;20477;-74
2022/09/19 08:05:39;;;;;;;3.92;0.60;;;12.40;99.90;;;;;;5014764;28;20035;-74
2022/09/19 08:08:07;;;;;;;3.33;0.80;;;12.40;99.90;;;;;;4998784;28;20037;-73
2022/09/19 08:10:34;;;;;;;4.05;1.70;;;12.40;99.90;;;;;;4991358;28;20088;-73
2022/09/19 08:13:05;;;;;;;2.55;1.10;;;12.60;99.90;;;;;;5007517;28;20441;-74
2022/09/19 08:15:35;;;;;;;;;;;12.60;99.90;;;;;;5010452;28;20039;-74
2022/09/19 08:18:11;;;;;;;3.90;0.90;;;12.70;99.90;;;;;;4992029;28;20008;-74
2022/09/19 08:20:37;;;;;;;5.50;2.13;;;12.60;99.90;;;;;;4991231;28;20038;-74
2022/09/19 08:23:07;;;;;;;9.82;1.52;;;12.50;99.90;;;;;;5002512;28;20030;-74
2022/09/19 08:25:35;;;;;;;3.42;1.23;;;12.50;99.90;;;;;;5015209;28;20089;-74
2022/09/19 08:28:03;;;;;;;1.90;1.67;;;12.80;99.90;;;;;;5008877;28;20034;-74
2022/09/19 08:30:29;;;;;;;5.60;1.00;;;12.80;99.90;;;;;;5017328;28;20125;-74
2022/09/19 08:32:56;;;;;;;4.45;1.45;;;13.00;99.90;;;;;;5021411;28;20065;-74
2022/09/19 08:35:23;;;;;;;2.28;1.00;;;13.10;99.90;;;;;;5024117;28;20030;-74
2022/09/19 08:37:58;;;;;;;1.02;0.50;;;13.20;99.90;;;;;;4997461;28;20019;-74
2022/09/19 08:40:44;;;;;;;0.80;0.52;;;13.00;99.90;;;;;;4990986;28;20092;-73
2022/09/19 08:43:22;;;;;;;2.80;1.02;;;13.10;99.90;;;;;;5017648;28;20055;-74
2022/09/19 08:46:33;;;;;;;4.45;0.80;;;13.20;99.90;;;;;;5016964;28;20104;-73
2022/09/19 08:49:20;;;;;;;5.00;0.70;;;13.30;99.90;;;;;;5020187;28;20528;-74
2022/09/19 08:51:59;;;;;;;1.33;0.60;;;13.20;99.90;;;;;;5013141;28;20046;-75
2022/09/19 08:54:38;;;;;;;1.30;0.80;;;13.20;99.90;;;;;;5005569;28;20030;-74
2022/09/19 08:57:08;;;;;;;4.28;0.50;;;13.40;99.90;;;;;;5016658;28;20310;-75
2022/09/19 08:59:37;;;;;;;2.42;1.17;;;13.40;99.90;;;;;;5008588;28;20034;-74
2022/09/19 09:02:41;;;;;;;1.52;0.88;;;13.50;99.90;;;;;;5011730;28;20486;-74
2022/09/19 09:06:06;;;;;;;6.18;1.00;;;13.40;99.90;;;;;;5010755;28;20041;-75
2022/09/19 09:08:41;;;;;;;1.90;0.68;;;13.60;99.90;;;;;;5002849;28;20022;-74
2022/09/19 09:11:37;;;;;;;9.05;1.20;;;13.70;99.90;;;;;;4992786;28;20066;-74
2022/09/19 09:14:30;;;;;;;5.32;1.08;;;13.70;99.90;;;;;;5001914;28;20030;-74
2022/09/19 09:17:21;;;;;;;11.00;1.58;;;13.80;99.90;;;;;;4998283;28;20096;-75
2022/09/19 09:20:26;;;;;;;7.22;1.33;;;13.70;99.90;;;;;;4975893;28;20034;-73
2022/09/19 09:23:15;;;;;;;1.20;0.90;;;13.70;99.90;;;;;;5019822;28;20037;-74
2022/09/19 09:25:47;;;;;;;1.00;0.35;;;13.80;99.90;;;;;;5000041;28;20042;-75
2022/09/19 09:28:44;;;;;;;2.40;1.02;;;14.00;99.90;;;;;;4993857;28;20498;-74
2022/09/19 09:31:35;;;;;;;1.95;0.52;;;14.10;99.90;;;;;;5000292;28;20053;-73
2022/09/19 09:34:09;;;;;;;1.17;0.80;;;14.10;99.90;;;;;;5004603;28;20105;-74
2022/09/19 09:36:50;;;;;;;1.27;0.88;;;14.10;99.90;;;;;;4998448;28;20038;-75
2022/09/19 09:39:59;;;;;;;1.42;0.77;;;13.90;99.90;;;;;;4995372;28;20117;-74
2022/09/19 09:42:37;;;;;;;6.43;1.27;;;13.80;99.90;;;;;;5011542;28;20034;-75
2022/09/19 09:45:22;;;;;;;1.33;0.47;;;13.70;99.90;;;;;;5016849;28;20462;-75
2022/09/19 09:48:08;;;;;;;0.50;0.45;;;13.90;99.90;;;;;;5010474;28;20029;-75
2022/09/19 09:51:29;;;;;;;9.30;1.65;;;14.00;99.90;;;;;;5011028;28;20030;-75
2022/09/19 09:57:47;;;;;;;10.93;1.27;;;14.40;99.90;;;;;;4991694;28;20053;-72
2022/09/19 10:03:42;;;;;;;4.20;1.17;;;14.40;99.90;;;;;;5016602;28;20029;-74
2022/09/19 10:06:19;;;;;;;1.60;0.77;;;14.40;99.90;;;;;;5018320;28;20436;-74
2022/09/19 10:09:06;;;;;;;4.47;0.60;;;14.50;99.90;;;;;;5020568;28;20022;-74
2022/09/19 10:11:58;;;;;;;1.40;0.75;;;14.50;99.90;;;;;;4997241;28;20117;-74
2022/09/19 10:14:30;;;;;;;10.35;1.42;;;14.40;99.90;;;;;;5022278;28;20435;-75
2022/09/19 10:17:01;;;;;;;2.13;1.60;;;14.50;99.90;;;;;;4994850;28;20060;-73
2022/09/19 10:19:41;;;;;;;11.88;0.98;;;14.60;99.90;;;;;;5020780;28;20044;-74
2022/09/19 10:22:14;;;;;;;3.10;0.88;;;14.80;99.90;;;;;;5016058;28;20026;-75
2022/09/19 10:24:59;;;;;;;4.78;0.88;;;15.00;99.90;;;;;;5009876;28;20050;-74
2022/09/19 10:27:31;;;;;;;0.73;0.55;;;15.20;99.90;;;;;;4987770;28;20030;-73
2022/09/19 10:30:24;;;;;;;1.02;0.60;;;15.40;99.90;;;;;;4996267;28;20478;-74
2022/09/19 10:32:52;;;;;;;1.33;0.63;;;15.70;99.90;;;;;;5016214;28;20022;-75
2022/09/19 10:35:26;;;;;;;11.15;2.50;;;15.60;99.90;;;;;;5018617;28;20034;-75
2022/09/19 10:38:13;;;;;;;3.17;0.82;;;15.70;99.90;;;;;;5001814;28;20058;-73
2022/09/19 10:41:01;;;;;;;4.75;0.98;;;15.80;99.90;;;;;;4991620;28;20104;-73
2022/09/19 10:43:43;;;;;;;5.45;0.80;;;15.80;99.90;;;;;;4992029;28;20030;-74
2022/09/19 10:46:31;;;;;;;7.40;0.80;;;15.80;99.90;;;;;;5003798;28;20041;-74
2022/09/19 10:48:58;;;;;;;1.38;0.30;;;16.00;99.90;;;;;;4996574;28;20036;-74
2022/09/19 10:51:44;;;;;;;6.38;0.88;;;16.10;99.90;;;;;;5012561;28;20398;-76
2022/09/19 10:54:31;;;;;;;13.10;1.88;;;15.90;99.90;;;;;;4990452;28;20026;-74
2022/09/19 10:57:01;;;;;;;3.30;0.52;;;15.60;99.90;;;;;;5010687;28;20034;-73
2022/09/19 10:59:36;;;;;;;1.35;0.50;;;15.60;99.90;;;;;;4992879;28;20053;-75
2022/09/19 11:02:25;;;;;;;1.55;0.43;;;15.30;99.90;;;;;;5004095;28;20034;-75
2022/09/19 11:05:00;;;;;;;1.85;0.77;;;15.20;99.90;;;;;;4990386;28;20030;-77
2022/09/19 11:07:30;;;;;;;0.30;0.30;;;14.80;99.90;;;;;;4999013;28;20030;-76
2022/09/19 11:10:01;;;;;;;3.60;0.80;;;14.90;99.90;;;;;;5010087;28;20112;-76
2022/09/19 11:12:31;;;;;;;0.80;0.60;;;15.00;99.90;;;;;;5015910;28;20141;-76
2022/09/19 11:14:59;;;;;;;1.92;1.33;;;15.10;99.90;;;;;;5017006;28;20121;-76
2022/09/19 11:18:01;;;;;;;3.97;0.30;;;15.30;99.90;;;;;;5000006;28;20034;-76
2022/09/19 11:21:17;;;;;;;0.63;0.43;;;15.40;99.90;;;;;;4997543;28;20038;-76
2022/09/19 11:24:27;;;;;;;2.85;0.22;;;15.60;99.90;;;;;;4993502;28;20502;-75
2022/09/19 11:27:40;;;;;;;4.70;0.80;;;15.70;99.90;;;;;;4981047;28;20039;-76
2022/09/19 11:30:24;;;;;;;5.78;1.02;;;15.90;99.90;;;;;;4982047;28;20136;-75
2022/09/19 11:33:04;;;;;;;1.83;0.40;;;15.70;99.90;;;;;;5016574;28;20032;-76
2022/09/19 11:36:16;;;;;;;8.70;0.73;;;15.60;99.90;;;;;;4984699;28;20045;-76
2022/09/19 11:39:04;;;;;;;4.18;0.93;;;15.90;99.90;;;;;;5016208;28;20041;-76
2022/09/19 11:41:39;;;;;;;6.32;0.70;;;16.50;99.90;;;;;;4999652;28;20042;-76
2022/09/19 11:44:43;;;;;;;5.28;0.57;;;16.50;99.90;;;;;;5022141;28;20539;-76
2022/09/19 11:47:49;;;;;;;0.98;0.43;;;16.80;99.90;;;;;;5002419;28;20034;-75
2022/09/19 11:50:40;;;;;;;1.60;0.75;;;16.70;99.90;;;;;;5009860;28;20112;-75
2022/09/19 11:53:31;;;;;;;1.00;0.43;;;16.50;99.90;;;;;;5003400;28;20038;-76
2022/09/19 11:56:46;;;;;;;2.15;0.68;;;16.10;99.90;;;;;;5004821;28;20823;-76
2022/09/19 12:00:00;;;;;;;0.45;0.30;;;15.90;99.90;;;;;;4994392;28;20046;-75
2022/09/19 12:02:46;;;;;;;4.30;0.50;;;15.90;99.90;;;;;;5006782;28;20081;-76
2022/09/19 12:05:56;;;;;;;4.53;0.60;;;16.10;99.90;;;;;;5007186;28;20042;-75
2022/09/19 12:08:50;;;;;;;6.25;0.57;;;16.10;99.90;;;;;;4997486;28;20038;-75
2022/09/19 12:11:44;;;;;;;2.65;0.55;;;15.80;99.90;;;;;;5002360;28;20046;-76
2022/09/19 12:14:32;;;;;;;2.67;0.65;;;16.00;99.90;;;;;;5013541;28;20026;-75
2022/09/19 12:17:05;;;;;;;3.42;0.95;;;16.10;99.90;;;;;;5013954;28;20462;-75
2022/09/19 12:19:45;;;;;;;2.22;1.35;;;16.20;99.90;;;;;;5021728;28;20108;-76
2022/09/19 12:22:31;;;;;;;0.47;0.35;;;16.80;99.90;;;;;;5011338;28;20025;-75
2022/09/19 12:25:19;;;;;;;5.57;0.93;;;17.00;99.90;;;;;;5008511;28;20486;-76
2022/09/19 12:28:03;;;;;;;3.47;0.85;;;16.90;99.90;;;;;;5008399;28;20031;-75
2022/09/19 12:30:39;;;;;;;1.98;0.45;;;17.10;99.90;;;;;;4998748;28;20088;-76
2022/09/19 12:33:32;;;;;;;2.15;0.52;;;17.10;99.90;;;;;;4987719;28;20038;-75
2022/09/19 12:36:29;;;;;;;1.95;0.63;;;17.10;99.90;;;;;;4988937;28;20058;-76
2022/09/19 12:39:16;;;;;;;13.13;1.45;;;17.20;99.90;;;;;;5017741;28;20479;-75
2022/09/19 12:41:49;;;;;;;2.75;1.27;;;16.00;99.90;;;;;;5013161;28;20026;-75
2022/09/19 12:44:37;;;;;;;0.20;0.10;;;14.90;99.90;;;;;;5008727;28;20034;-74
2022/09/19 12:47:36;;;;;;;3.95;0.63;;;14.00;99.90;;;;;;5011702;28;20117;-75
2022/09/19 12:50:31;;;;;;;1.02;0.50;;;13.30;99.90;;;;;;5006538;28;20057;-74
2022/09/19 12:53:13;;;;;;;4.32;0.38;;;12.90;99.90;;;;;;5003777;28;20146;-74
2022/09/19 12:55:56;;;;;;;0.65;0.50;;;12.60;99.90;;;;;;5000965;28;20034;-74
2022/09/19 12:58:34;;;;;;;1.40;0.90;;;12.60;99.90;;;;;;4987326;28;20089;-74
2022/09/19 13:01:38;;;;;;;2.28;0.50;;;12.50;99.90;;;;;;5013448;28;20813;-74
2022/09/19 13:04:42;;;;;;;4.25;0.38;;;12.70;99.90;;;;;;4972168;28;20045;-74
2022/09/19 13:07:09;;;;;;;3.65;0.57;;;12.80;99.90;;;;;;5007173;28;20107;-74
2022/09/19 13:10:21;;;;;;;1.17;0.50;;;13.00;99.90;;;;;;4996008;28;20367;-73
2022/09/19 13:13:22;;;;;;;0.93;0.77;;;13.30;99.90;;;;;;4995106;28;20023;-73
2022/09/19 13:15:55;;;;;;;3.78;1.08;;;13.70;99.90;;;;;;4997162;28;20038;-74
2022/09/19 13:24:13;;;;;;;1.13;0.63;;;14.60;99.90;;;;;;5000810;28;20042;-74
2022/09/19 13:26:39;;;;;;;13.77;1.95;;;14.90;99.90;;;;;;5014915;28;20034;-74
2022/09/19 13:29:18;;;;;;;11.23;2.22;;;15.60;99.90;;;;;;4970137;28;20071;-74
2022/09/19 13:31:52;;;;;;;9.60;1.55;;;16.50;99.90;;;;;;4997346;28;20060;-75
2022/09/19 13:34:40;;;;;;;3.92;1.15;;;17.10;99.90;;;;;;5008043;28;20127;-75
2022/09/19 13:37:44;;;;;;;0.85;0.50;;;17.80;99.90;;;;;;5014120;28;20113;-76
2022/09/19 13:40:17;;;;;;;1.10;0.60;;;18.30;99.90;;;;;;4982739;28;20030;-75
2022/09/19 13:42:59;;;;;;;4.82;1.05;;;18.90;99.90;;;;;;4998208;28;20037;-76
2022/09/19 13:45:57;;;;;;;2.33;0.63;;;18.40;99.90;;;;;;4998018;28;20034;-76
2022/09/19 13:48:56;;;;;;;1.55;0.80;;;18.70;99.90;;;;;;5004682;28;20081;-76
2022/09/19 13:51:42;;;;;;;3.42;0.93;;;18.90;99.90;;;;;;5007750;28;20124;-76
2022/09/19 13:54:20;;;;;;;6.13;1.27;;;19.00;99.90;;;;;;4970465;28;20027;-76
2022/09/19 13:57:03;;;;;;;2.72;0.47;;;19.10;99.90;;;;;;4987977;28;20033;-75
2022/09/19 13:59:46;;;;;;;3.47;1.63;;;18.70;99.90;;;;;;5007893;28;20030;-76
2022/09/19 14:02:15;;;;;;;1.38;0.55;;;18.80;99.90;;;;;;4997117;28;20040;-76